sensor_id;sensor_type;location;lat;lon;timestamp;temperature;humidity
28010;DHT22;15334;49.494;8.410;2023-06-22T00:00:32;23.90;99.90
28010;DHT22;15334;49.494;8.410;2023-06-22T00:03:00;23.80;99.90
28010;DHT22;15334;49.494;8.410;2023-06-22T00:05:28;23.80;99.90
28010;DHT22;15334;49.494;8.410;2023-06-22T00:07:56;23.80;99.90
28010;DHT22;15334;49.494;8.410;2023-06-22T00:10:24;23.70;99.90
28010;DHT22;15334;49.494;8.410;2023-06-22T00:12:52;23.80;99.90
28010;DHT22;15334;49.494;8.410;2023-06-22T00:15:20;23.80;99.90
28010;DHT22;15334;49.494;8.410;2023-06-22T00:17:50;23.90;99.90
28010;DHT22;15334;49.494;8.410;2023-06-22T00:20:19;23.90;99.90
28010;DHT22;15334;49.494;8.410;2023-06-22T00:22:47;23.90;99.90
28010;DHT22;15334;49.494;8.410;2023-06-22T00:25:15;23.80;99.90
28010;DHT22;15334;49.494;8.410;2023-06-22T00:27:43;23.60;99.90
28010;DHT22;15334;49.494;8.410;2023-06-22T00:30:11;23.60;99.90
28010;DHT22;15334;49.494;8.410;2023-06-22T00:32:39;23.70;99.90
28010;DHT22;15334;49.494;8.410;2023-06-22T00:35:09;23.70;99.90
28010;DHT22;15334;49.494;8.410;2023-06-22T00:37:37;23.70;99.90
28010;DHT22;15334;49.494;8.410;2023-06-22T00:40:08;23.80;99.90
28010;DHT22;15334;49.494;8.410;2023-06-22T00:42:38;23.80;99.90
28010;DHT22;15334;49.494;8.410;2023-06-22T00:45:07;23.70;99.90
28010;DHT22;15334;49.494;8.410;2023-06-22T00:47:36;23.60;99.90
28010;DHT22;15334;49.494;8.410;2023-06-22T00:50:06;23.60;99.90
28010;DHT22;15334;49.494;8.410;2023-06-22T00:52:36;23.60;99.90
28010;DHT22;15334;49.494;8.410;2023-06-22T00:55:10;23.70;99.90
28010;DHT22;15334;49.494;8.410;2023-06-22T00:57:38;23.50;99.90
28010;DHT22;15334;49.494;8.410;2023-06-22T01:00:07;23.10;99.90
28010;DHT22;15334;49.494;8.410;2023-06-22T01:02:36;22.60;99.90
28010;DHT22;15334;49.494;8.410;2023-06-22T01:05:06;22.20;99.90
28010;DHT22;15334;49.494;8.410;2023-06-22T01:07:39;21.90;99.90
28010;DHT22;15334;49.494;8.410;2023-06-22T01:10:16;21.80;99.90
28010;DHT22;15334;49.494;8.410;2023-06-22T01:12:50;21.60;99.90
28010;DHT22;15334;49.494;8.410;2023-06-22T01:15:35;21.60;99.90
28010;DHT22;15334;49.494;8.410;2023-06-22T01:18:06;21.50;99.90
28010;DHT22;15334;49.494;8.410;2023-06-22T01:20:37;21.50;99.90
28010;DHT22;15334;49.494;8.410;2023-06-22T01:23:15;21.40;99.90
28010;DHT22;15334;49.494;8.410;2023-06-22T01:25:48;21.30;99.90
28010;DHT22;15334;49.494;8.410;2023-06-22T01:28:43;21.40;99.90
28010;DHT22;15334;49.494;8.410;2023-06-22T01:31:14;21.40;99.90
28010;DHT22;15334;49.494;8.410;2023-06-22T01:33:45;21.40;99.90
28010;DHT22;15334;49.494;8.410;2023-06-22T01:36:14;21.40;99.90
28010;DHT22;15334;49.494;8.410;2023-06-22T01:38:44;21.40;99.90
28010;DHT22;15334;49.494;8.410;2023-06-22T01:41:13;21.40;99.90
28010;DHT22;15334;49.494;8.410;2023-06-22T01:43:44;21.40;99.90
28010;DHT22;15334;49.494;8.410;2023-06-22T01:46:13;21.40;99.90
28010;DHT22;15334;49.494;8.410;2023-06-22T01:48:41;21.40;99.90
28010;DHT22;15334;49.494;8.410;2023-06-22T01:51:09;21.30;99.90
28010;DHT22;15334;49.494;8.410;2023-06-22T01:53:37;21.30;99.90
28010;DHT22;15334;49.494;8.410;2023-06-22T01:56:05;21.40;99.90
28010;DHT22;15334;49.494;8.410;2023-06-22T01:58:33;21.40;99.90
28010;DHT22;15334;49.494;8.410;2023-06-22T02:01:09;21.30;99.90
28010;DHT22;15334;49.494;8.410;2023-06-22T02:03:52;21.30;99.90
28010;DHT22;15334;49.494;8.410;2023-06-22T02:06:24;21.20;99.90
28010;DHT22;15334;49.494;8.410;2023-06-22T02:08:59;21.20;99.90
28010;DHT22;15334;49.494;8.410;2023-06-22T02:11:28;21.20;99.90
28010;DHT22;15334;49.494;8.410;2023-06-22T02:13:57;21.20;99.90
28010;DHT22;15334;49.494;8.410;2023-06-22T02:16:27;21.30;99.90
28010;DHT22;15334;49.494;8.410;2023-06-22T02:18:56;21.30;99.90
28010;DHT22;15334;49.494;8.410;2023-06-22T02:21:30;21.30;99.90
28010;DHT22;15334;49.494;8.410;2023-06-22T02:23:58;21.30;99.90
28010;DHT22;15334;49.494;8.410;2023-06-22T02:26:26;21.40;99.90
28010;DHT22;15334;49.494;8.410;2023-06-22T02:28:55;21.40;99.90
28010;DHT22;15334;49.494;8.410;2023-06-22T02:31:23;21.50;99.90
28010;DHT22;15334;49.494;8.410;2023-06-22T02:33:59;21.50;99.90
28010;DHT22;15334;49.494;8.410;2023-06-22T02:36:27;21.50;99.90
28010;DHT22;15334;49.494;8.410;2023-06-22T02:38:57;21.50;99.90
28010;DHT22;15334;49.494;8.410;2023-06-22T02:41:25;21.60;99.90
28010;DHT22;15334;49.494;8.410;2023-06-22T02:43:53;21.50;99.90
28010;DHT22;15334;49.494;8.410;2023-06-22T02:46:21;21.60;99.90
28010;DHT22;15334;49.494;8.410;2023-06-22T02:48:49;21.60;99.90
28010;DHT22;15334;49.494;8.410;2023-06-22T02:51:18;21.60;99.90
28010;DHT22;15334;49.494;8.410;2023-06-22T02:53:47;21.60;99.90
28010;DHT22;15334;49.494;8.410;2023-06-22T02:56:15;21.60;99.90
28010;DHT22;15334;49.494;8.410;2023-06-22T02:58:44;21.60;99.90
28010;DHT22;15334;49.494;8.410;2023-06-22T03:01:12;21.60;99.90
28010;DHT22;15334;49.494;8.410;2023-06-22T03:03:40;21.70;99.90
28010;DHT22;15334;49.494;8.410;2023-06-22T03:06:08;21.70;99.90
28010;DHT22;15334;49.494;8.410;2023-06-22T03:08:42;21.70;99.90
28010;DHT22;15334;49.494;8.410;2023-06-22T03:11:10;21.70;99.90
28010;DHT22;15334;49.494;8.410;2023-06-22T03:13:37;21.80;99.90
28010;DHT22;15334;49.494;8.410;2023-06-22T03:16:05;21.80;99.90
28010;DHT22;15334;49.494;8.410;2023-06-22T03:18:33;21.80;99.90
28010;DHT22;15334;49.494;8.410;2023-06-22T03:21:02;21.80;99.90
28010;DHT22;15334;49.494;8.410;2023-06-22T03:23:30;21.80;99.90
28010;DHT22;15334;49.494;8.410;2023-06-22T03:25:59;21.80;99.90
28010;DHT22;15334;49.494;8.410;2023-06-22T03:28:27;21.80;99.90
28010;DHT22;15334;49.494;8.410;2023-06-22T03:30:57;21.90;99.90
28010;DHT22;15334;49.494;8.410;2023-06-22T03:33:25;21.80;99.90
28010;DHT22;15334;49.494;8.410;2023-06-22T03:35:53;21.80;99.90
28010;DHT22;15334;49.494;8.410;2023-06-22T03:38:21;21.70;99.90
28010;DHT22;15334;49.494;8.410;2023-06-22T03:40:49;21.60;99.90
28010;DHT22;15334;49.494;8.410;2023-06-22T03:43:19;21.60;99.90
28010;DHT22;15334;49.494;8.410;2023-06-22T03:45:47;21.60;99.90
28010;DHT22;15334;49.494;8.410;2023-06-22T03:48:15;21.60;99.90
28010;DHT22;15334;49.494;8.410;2023-06-22T03:50:43;21.50;99.90
28010;DHT22;15334;49.494;8.410;2023-06-22T03:53:11;21.40;99.90
28010;DHT22;15334;49.494;8.410;2023-06-22T03:55:47;21.40;99.90
28010;DHT22;15334;49.494;8.410;2023-06-22T03:58:16;21.30;99.90
28010;DHT22;15334;49.494;8.410;2023-06-22T04:00:47;21.30;99.90
28010;DHT22;15334;49.494;8.410;2023-06-22T04:03:16;21.30;99.90
28010;DHT22;15334;49.494;8.410;2023-06-22T04:05:45;21.30;99.90
28010;DHT22;15334;49.494;8.410;2023-06-22T04:08:14;21.30;99.90
28010;DHT22;15334;49.494;8.410;2023-06-22T04:10:42;21.20;99.90
28010;DHT22;15334;49.494;8.410;2023-06-22T04:13:10;21.20;99.90
28010;DHT22;15334;49.494;8.410;2023-06-22T04:15:39;21.20;99.90
28010;DHT22;15334;49.494;8.410;2023-06-22T04:18:08;21.20;99.90
28010;DHT22;15334;49.494;8.410;2023-06-22T04:20:36;21.30;99.90
28010;DHT22;15334;49.494;8.410;2023-06-22T04:23:05;21.30;99.90
28010;DHT22;15334;49.494;8.410;2023-06-22T04:25:33;21.40;99.90
28010;DHT22;15334;49.494;8.410;2023-06-22T04:28:01;21.40;99.90
28010;DHT22;15334;49.494;8.410;2023-06-22T04:30:32;21.50;99.90
28010;DHT22;15334;49.494;8.410;2023-06-22T04:33:01;21.60;99.90
28010;DHT22;15334;49.494;8.410;2023-06-22T04:35:30;21.70;99.90
28010;DHT22;15334;49.494;8.410;2023-06-22T04:37:59;21.70;99.90
28010;DHT22;15334;49.494;8.410;2023-06-22T04:40:27;21.80;99.90
28010;DHT22;15334;49.494;8.410;2023-06-22T04:43:05;21.80;99.90
28010;DHT22;15334;49.494;8.410;2023-06-22T04:45:37;21.80;99.90
28010;DHT22;15334;49.494;8.410;2023-06-22T04:48:06;21.80;99.90
28010;DHT22;15334;49.494;8.410;2023-06-22T04:50:37;21.90;99.90
28010;DHT22;15334;49.494;8.410;2023-06-22T04:53:06;22.00;99.90
28010;DHT22;15334;49.494;8.410;2023-06-22T04:55:34;22.10;99.90
28010;DHT22;15334;49.494;8.410;2023-06-22T04:58:13;22.00;99.90
28010;DHT22;15334;49.494;8.410;2023-06-22T05:00:42;22.00;99.90
28010;DHT22;15334;49.494;8.410;2023-06-22T05:03:11;22.00;99.90
28010;DHT22;15334;49.494;8.410;2023-06-22T05:05:47;22.10;99.90
28010;DHT22;15334;49.494;8.410;2023-06-22T05:08:24;22.20;99.90
28010;DHT22;15334;49.494;8.410;2023-06-22T05:10:55;22.30;99.90
28010;DHT22;15334;49.494;8.410;2023-06-22T05:13:31;22.50;99.90
28010;DHT22;15334;49.494;8.410;2023-06-22T05:16:00;22.60;99.90
28010;DHT22;15334;49.494;8.410;2023-06-22T05:18:39;22.80;99.90
28010;DHT22;15334;49.494;8.410;2023-06-22T05:21:09;22.90;99.90
28010;DHT22;15334;49.494;8.410;2023-06-22T05:23:37;23.00;99.90
28010;DHT22;15334;49.494;8.410;2023-06-22T05:26:05;23.10;99.90
28010;DHT22;15334;49.494;8.410;2023-06-22T05:28:36;23.30;99.90
28010;DHT22;15334;49.494;8.410;2023-06-22T05:31:04;23.40;99.90
28010;DHT22;15334;49.494;8.410;2023-06-22T05:33:32;23.60;99.90
28010;DHT22;15334;49.494;8.410;2023-06-22T05:36:00;23.70;99.90
28010;DHT22;15334;49.494;8.410;2023-06-22T05:38:30;23.90;99.90
28010;DHT22;15334;49.494;8.410;2023-06-22T05:40:58;24.00;99.90
28010;DHT22;15334;49.494;8.410;2023-06-22T05:43:26;24.10;99.90
28010;DHT22;15334;49.494;8.410;2023-06-22T05:45:54;24.30;99.90
28010;DHT22;15334;49.494;8.410;2023-06-22T05:48:22;24.40;99.90
28010;DHT22;15334;49.494;8.410;2023-06-22T05:50:50;24.50;99.90
28010;DHT22;15334;49.494;8.410;2023-06-22T05:53:19;24.60;99.90
28010;DHT22;15334;49.494;8.410;2023-06-22T05:55:48;24.60;99.90
28010;DHT22;15334;49.494;8.410;2023-06-22T05:58:16;24.60;99.90
28010;DHT22;15334;49.494;8.410;2023-06-22T06:00:44;24.60;99.90
28010;DHT22;15334;49.494;8.410;2023-06-22T06:03:13;24.70;99.90
28010;DHT22;15334;49.494;8.410;2023-06-22T06:05:44;24.70;99.90
28010;DHT22;15334;49.494;8.410;2023-06-22T06:08:12;24.80;99.90
28010;DHT22;15334;49.494;8.410;2023-06-22T06:10:40;24.80;99.90
28010;DHT22;15334;49.494;8.410;2023-06-22T06:13:09;24.80;99.90
28010;DHT22;15334;49.494;8.410;2023-06-22T06:15:37;24.90;99.90
28010;DHT22;15334;49.494;8.410;2023-06-22T06:18:06;24.90;99.90
28010;DHT22;15334;49.494;8.410;2023-06-22T06:20:34;25.00;99.90
28010;DHT22;15334;49.494;8.410;2023-06-22T06:23:02;25.10;99.90
28010;DHT22;15334;49.494;8.410;2023-06-22T06:25:30;25.10;99.90
28010;DHT22;15334;49.494;8.410;2023-06-22T06:27:58;25.20;99.90
28010;DHT22;15334;49.494;8.410;2023-06-22T06:30:27;25.30;99.90
28010;DHT22;15334;49.494;8.410;2023-06-22T06:32:56;25.40;99.90
28010;DHT22;15334;49.494;8.410;2023-06-22T06:35:24;25.40;99.90
28010;DHT22;15334;49.494;8.410;2023-06-22T06:37:52;25.50;99.90
28010;DHT22;15334;49.494;8.410;2023-06-22T06:40:20;25.60;99.90
28010;DHT22;15334;49.494;8.410;2023-06-22T06:42:49;25.60;99.90
28010;DHT22;15334;49.494;8.410;2023-06-22T06:45:18;25.50;99.90
28010;DHT22;15334;49.494;8.410;2023-06-22T06:47:48;25.50;99.90
28010;DHT22;15334;49.494;8.410;2023-06-22T06:50:16;25.60;99.90
28010;DHT22;15334;49.494;8.410;2023-06-22T06:52:44;25.60;99.90
28010;DHT22;15334;49.494;8.410;2023-06-22T06:55:12;25.70;99.90
28010;DHT22;15334;49.494;8.410;2023-06-22T06:57:41;25.70;99.90
28010;DHT22;15334;49.494;8.410;2023-06-22T07:00:11;25.80;99.90
28010;DHT22;15334;49.494;8.410;2023-06-22T07:02:41;25.80;99.90
28010;DHT22;15334;49.494;8.410;2023-06-22T07:05:12;25.90;99.90
28010;DHT22;15334;49.494;8.410;2023-06-22T07:07:40;26.00;99.90
28010;DHT22;15334;49.494;8.410;2023-06-22T07:10:10;26.00;99.90
28010;DHT22;15334;49.494;8.410;2023-06-22T07:12:38;26.00;99.90
28010;DHT22;15334;49.494;8.410;2023-06-22T07:15:07;26.00;99.90
28010;DHT22;15334;49.494;8.410;2023-06-22T07:17:36;26.10;99.90
28010;DHT22;15334;49.494;8.410;2023-06-22T07:20:08;26.10;99.90
28010;DHT22;15334;49.494;8.410;2023-06-22T07:22:39;26.10;99.90
28010;DHT22;15334;49.494;8.410;2023-06-22T07:25:07;26.20;99.90
28010;DHT22;15334;49.494;8.410;2023-06-22T07:27:37;26.20;99.90
28010;DHT22;15334;49.494;8.410;2023-06-22T07:30:06;26.20;99.90
28010;DHT22;15334;49.494;8.410;2023-06-22T07:32:34;26.20;99.90
28010;DHT22;15334;49.494;8.410;2023-06-22T07:35:02;26.20;99.90
28010;DHT22;15334;49.494;8.410;2023-06-22T07:37:31;26.20;99.90
28010;DHT22;15334;49.494;8.410;2023-06-22T07:40:02;26.30;99.90
28010;DHT22;15334;49.494;8.410;2023-06-22T07:42:33;26.30;99.90
28010;DHT22;15334;49.494;8.410;2023-06-22T07:45:02;26.40;99.90
28010;DHT22;15334;49.494;8.410;2023-06-22T07:47:30;26.40;99.90
28010;DHT22;15334;49.494;8.410;2023-06-22T07:50:03;26.50;99.90
28010;DHT22;15334;49.494;8.410;2023-06-22T07:52:31;26.50;99.90
28010;DHT22;15334;49.494;8.410;2023-06-22T07:54:59;26.60;99.90
28010;DHT22;15334;49.494;8.410;2023-06-22T07:57:29;26.60;99.90
28010;DHT22;15334;49.494;8.410;2023-06-22T08:00:02;26.80;99.90
28010;DHT22;15334;49.494;8.410;2023-06-22T08:02:38;26.80;99.90
28010;DHT22;15334;49.494;8.410;2023-06-22T08:05:07;26.90;99.90
28010;DHT22;15334;49.494;8.410;2023-06-22T08:07:55;26.90;99.90
28010;DHT22;15334;49.494;8.410;2023-06-22T08:10:23;26.90;99.90
28010;DHT22;15334;49.494;8.410;2023-06-22T08:12:52;26.90;99.90
28010;DHT22;15334;49.494;8.410;2023-06-22T08:15:20;27.00;99.90
28010;DHT22;15334;49.494;8.410;2023-06-22T08:17:49;26.90;99.90
28010;DHT22;15334;49.494;8.410;2023-06-22T08:20:19;27.00;99.90
28010;DHT22;15334;49.494;8.410;2023-06-22T08:22:47;27.10;99.90
28010;DHT22;15334;49.494;8.410;2023-06-22T08:25:15;27.20;99.90
28010;DHT22;15334;49.494;8.410;2023-06-22T08:27:45;27.40;99.90
28010;DHT22;15334;49.494;8.410;2023-06-22T08:30:15;27.40;99.90
28010;DHT22;15334;49.494;8.410;2023-06-22T08:32:43;27.60;99.90
28010;DHT22;15334;49.494;8.410;2023-06-22T08:35:11;27.70;99.90
28010;DHT22;15334;49.494;8.410;2023-06-22T08:37:39;27.60;99.90
28010;DHT22;15334;49.494;8.410;2023-06-22T08:40:09;27.60;99.90
28010;DHT22;15334;49.494;8.410;2023-06-22T08:42:39;27.70;99.90
28010;DHT22;15334;49.494;8.410;2023-06-22T08:45:09;27.80;99.90
28010;DHT22;15334;49.494;8.410;2023-06-22T08:47:39;28.00;99.90
28010;DHT22;15334;49.494;8.410;2023-06-22T08:50:08;28.10;99.90
28010;DHT22;15334;49.494;8.410;2023-06-22T08:52:37;28.10;99.90
28010;DHT22;15334;49.494;8.410;2023-06-22T08:55:05;28.00;99.90
28010;DHT22;15334;49.494;8.410;2023-06-22T08:57:33;28.00;99.90
28010;DHT22;15334;49.494;8.410;2023-06-22T09:00:05;28.20;99.90
28010;DHT22;15334;49.494;8.410;2023-06-22T09:02:39;28.30;99.90
28010;DHT22;15334;49.494;8.410;2023-06-22T09:05:08;28.40;99.90
28010;DHT22;15334;49.494;8.410;2023-06-22T09:07:36;28.50;99.90
28010;DHT22;15334;49.494;8.410;2023-06-22T09:10:05;28.60;99.90
28010;DHT22;15334;49.494;8.410;2023-06-22T09:12:33;28.60;99.90
28010;DHT22;15334;49.494;8.410;2023-06-22T09:15:05;28.70;99.90
28010;DHT22;15334;49.494;8.410;2023-06-22T09:17:40;28.70;99.90
28010;DHT22;15334;49.494;8.410;2023-06-22T09:20:09;28.80;99.90
28010;DHT22;15334;49.494;8.410;2023-06-22T09:22:38;28.80;99.90
28010;DHT22;15334;49.494;8.410;2023-06-22T09:25:06;28.70;99.90
28010;DHT22;15334;49.494;8.410;2023-06-22T09:27:34;28.90;99.90
28010;DHT22;15334;49.494;8.410;2023-06-22T09:30:03;29.00;99.90
28010;DHT22;15334;49.494;8.410;2023-06-22T09:32:32;29.10;99.90
28010;DHT22;15334;49.494;8.410;2023-06-22T09:35:04;29.20;99.90
28010;DHT22;15334;49.494;8.410;2023-06-22T09:37:33;29.30;99.90
28010;DHT22;15334;49.494;8.410;2023-06-22T09:40:01;29.40;99.90
28010;DHT22;15334;49.494;8.410;2023-06-22T09:42:33;29.50;99.90
28010;DHT22;15334;49.494;8.410;2023-06-22T09:45:02;29.40;99.90
28010;DHT22;15334;49.494;8.410;2023-06-22T09:47:30;29.40;99.90
28010;DHT22;15334;49.494;8.410;2023-06-22T09:49:58;29.50;99.90
28010;DHT22;15334;49.494;8.410;2023-06-22T09:52:28;29.60;99.90
28010;DHT22;15334;49.494;8.410;2023-06-22T09:55:14;29.70;99.90
28010;DHT22;15334;49.494;8.410;2023-06-22T09:57:42;29.70;99.90
28010;DHT22;15334;49.494;8.410;2023-06-22T10:00:11;29.70;99.90
28010;DHT22;15334;49.494;8.410;2023-06-22T10:02:41;29.80;99.90
28010;DHT22;15334;49.494;8.410;2023-06-22T10:05:10;29.90;99.90
28010;DHT22;15334;49.494;8.410;2023-06-22T10:07:40;30.00;99.90
28010;DHT22;15334;49.494;8.410;2023-06-22T10:10:11;30.10;99.90
28010;DHT22;15334;49.494;8.410;2023-06-22T10:12:41;30.30;99.90
28010;DHT22;15334;49.494;8.410;2023-06-22T10:15:10;30.40;99.90
28010;DHT22;15334;49.494;8.410;2023-06-22T10:17:39;30.50;99.90
28010;DHT22;15334;49.494;8.410;2023-06-22T10:20:13;30.60;99.90
28010;DHT22;15334;49.494;8.410;2023-06-22T10:22:58;30.70;99.90
28010;DHT22;15334;49.494;8.410;2023-06-22T10:25:54;30.80;99.90
28010;DHT22;15334;49.494;8.410;2023-06-22T10:28:25;30.80;99.90
28010;DHT22;15334;49.494;8.410;2023-06-22T10:30:53;30.80;99.90
28010;DHT22;15334;49.494;8.410;2023-06-22T10:33:21;30.80;99.90
28010;DHT22;15334;49.494;8.410;2023-06-22T10:35:49;30.90;99.90
28010;DHT22;15334;49.494;8.410;2023-06-22T10:38:18;30.90;99.90
28010;DHT22;15334;49.494;8.410;2023-06-22T10:40:46;30.80;99.90
28010;DHT22;15334;49.494;8.410;2023-06-22T10:43:14;30.90;99.90
28010;DHT22;15334;49.494;8.410;2023-06-22T10:45:50;30.90;99.90
28010;DHT22;15334;49.494;8.410;2023-06-22T10:48:18;30.90;99.90
28010;DHT22;15334;49.494;8.410;2023-06-22T10:50:46;31.00;99.90
28010;DHT22;15334;49.494;8.410;2023-06-22T10:53:15;31.00;99.90
28010;DHT22;15334;49.494;8.410;2023-06-22T10:55:44;31.10;99.90
28010;DHT22;15334;49.494;8.410;2023-06-22T10:58:22;31.20;99.90
28010;DHT22;15334;49.494;8.410;2023-06-22T11:00:50;31.20;99.90
28010;DHT22;15334;49.494;8.410;2023-06-22T11:03:28;31.20;99.90
28010;DHT22;15334;49.494;8.410;2023-06-22T11:05:56;31.30;99.90
28010;DHT22;15334;49.494;8.410;2023-06-22T11:08:24;31.40;99.90
28010;DHT22;15334;49.494;8.410;2023-06-22T11:10:54;31.30;99.90
28010;DHT22;15334;49.494;8.410;2023-06-22T11:13:22;31.40;99.90
28010;DHT22;15334;49.494;8.410;2023-06-22T11:15:51;31.40;99.90
28010;DHT22;15334;49.494;8.410;2023-06-22T11:18:20;31.50;99.90
28010;DHT22;15334;49.494;8.410;2023-06-22T11:21:00;31.60;99.90
28010;DHT22;15334;49.494;8.410;2023-06-22T11:24:09;31.70;99.90
28010;DHT22;15334;49.494;8.410;2023-06-22T11:27:06;31.60;99.90
28010;DHT22;15334;49.494;8.410;2023-06-22T11:29:37;31.70;99.90
28010;DHT22;15334;49.494;8.410;2023-06-22T11:32:07;31.70;99.90
28010;DHT22;15334;49.494;8.410;2023-06-22T11:34:40;31.80;99.90
28010;DHT22;15334;49.494;8.410;2023-06-22T11:37:14;32.00;99.90
28010;DHT22;15334;49.494;8.410;2023-06-22T11:39:45;32.00;99.90
28010;DHT22;15334;49.494;8.410;2023-06-22T11:42:20;32.00;99.90
28010;DHT22;15334;49.494;8.410;2023-06-22T11:44:50;32.00;99.90
28010;DHT22;15334;49.494;8.410;2023-06-22T11:47:18;31.90;99.90
28010;DHT22;15334;49.494;8.410;2023-06-22T11:49:46;31.80;99.90
28010;DHT22;15334;49.494;8.410;2023-06-22T11:52:14;31.90;99.90
28010;DHT22;15334;49.494;8.410;2023-06-22T11:54:44;31.80;99.90
28010;DHT22;15334;49.494;8.410;2023-06-22T11:57:12;31.90;99.90
28010;DHT22;15334;49.494;8.410;2023-06-22T11:59:41;32.00;99.90
28010;DHT22;15334;49.494;8.410;2023-06-22T12:02:09;32.10;99.90
28010;DHT22;15334;49.494;8.410;2023-06-22T12:04:37;32.20;99.90
28010;DHT22;15334;49.494;8.410;2023-06-22T12:07:05;32.30;99.90
28010;DHT22;15334;49.494;8.410;2023-06-22T12:09:33;32.30;99.90
28010;DHT22;15334;49.494;8.410;2023-06-22T12:12:01;32.30;99.90
28010;DHT22;15334;49.494;8.410;2023-06-22T12:14:31;32.30;99.90
28010;DHT22;15334;49.494;8.410;2023-06-22T12:17:00;32.30;99.90
28010;DHT22;15334;49.494;8.410;2023-06-22T12:19:28;32.30;99.90
28010;DHT22;15334;49.494;8.410;2023-06-22T12:21:56;32.30;99.90
28010;DHT22;15334;49.494;8.410;2023-06-22T12:24:24;32.40;99.90
28010;DHT22;15334;49.494;8.410;2023-06-22T12:26:52;32.50;99.90
28010;DHT22;15334;49.494;8.410;2023-06-22T12:29:22;32.70;99.90
28010;DHT22;15334;49.494;8.410;2023-06-22T12:31:50;33.00;99.90
28010;DHT22;15334;49.494;8.410;2023-06-22T12:34:20;33.10;99.90
28010;DHT22;15334;49.494;8.410;2023-06-22T12:36:47;33.30;99.90
28010;DHT22;15334;49.494;8.410;2023-06-22T12:39:16;33.70;99.90
28010;DHT22;15334;49.494;8.410;2023-06-22T12:41:44;33.80;99.90
28010;DHT22;15334;49.494;8.410;2023-06-22T12:44:12;33.90;99.90
28010;DHT22;15334;49.494;8.410;2023-06-22T12:46:40;34.10;99.90
28010;DHT22;15334;49.494;8.410;2023-06-22T12:49:08;34.10;99.90
28010;DHT22;15334;49.494;8.410;2023-06-22T12:51:41;34.10;99.90
28010;DHT22;15334;49.494;8.410;2023-06-22T12:54:10;34.10;99.80
28010;DHT22;15334;49.494;8.410;2023-06-22T12:56:38;34.20;99.90
28010;DHT22;15334;49.494;8.410;2023-06-22T12:59:06;34.20;99.90
28010;DHT22;15334;49.494;8.410;2023-06-22T13:01:34;34.20;99.60
28010;DHT22;15334;49.494;8.410;2023-06-22T13:04:02;34.40;99.60
28010;DHT22;15334;49.494;8.410;2023-06-22T13:06:30;34.50;98.50
28010;DHT22;15334;49.494;8.410;2023-06-22T13:08:59;34.60;98.00
28010;DHT22;15334;49.494;8.410;2023-06-22T13:11:30;34.70;99.50
28010;DHT22;15334;49.494;8.410;2023-06-22T13:13:58;34.80;99.40
28010;DHT22;15334;49.494;8.410;2023-06-22T13:16:26;35.00;98.30
28010;DHT22;15334;49.494;8.410;2023-06-22T13:18:54;35.20;98.80
28010;DHT22;15334;49.494;8.410;2023-06-22T13:21:22;35.20;97.10
28010;DHT22;15334;49.494;8.410;2023-06-22T13:23:50;35.20;96.80
28010;DHT22;15334;49.494;8.410;2023-06-22T13:26:20;35.10;97.20
28010;DHT22;15334;49.494;8.410;2023-06-22T13:28:48;35.00;97.30
28010;DHT22;15334;49.494;8.410;2023-06-22T13:31:16;35.00;98.50
28010;DHT22;15334;49.494;8.410;2023-06-22T13:33:44;35.10;97.70
28010;DHT22;15334;49.494;8.410;2023-06-22T13:36:14;35.30;96.40
28010;DHT22;15334;49.494;8.410;2023-06-22T13:38:44;35.40;96.20
28010;DHT22;15334;49.494;8.410;2023-06-22T13:41:12;35.40;96.60
28010;DHT22;15334;49.494;8.410;2023-06-22T13:43:41;35.50;96.60
28010;DHT22;15334;49.494;8.410;2023-06-22T13:46:09;35.60;97.30
28010;DHT22;15334;49.494;8.410;2023-06-22T13:48:37;35.70;95.80
28010;DHT22;15334;49.494;8.410;2023-06-22T13:51:05;36.00;95.60
28010;DHT22;15334;49.494;8.410;2023-06-22T13:53:33;35.90;94.90
28010;DHT22;15334;49.494;8.410;2023-06-22T13:56:01;35.50;93.70
28010;DHT22;15334;49.494;8.410;2023-06-22T13:58:29;34.90;95.30
28010;DHT22;15334;49.494;8.410;2023-06-22T14:00:58;34.70;95.50
28010;DHT22;15334;49.494;8.410;2023-06-22T14:03:26;34.30;96.80
28010;DHT22;15334;49.494;8.410;2023-06-22T14:05:54;34.00;96.90
28010;DHT22;15334;49.494;8.410;2023-06-22T14:08:23;33.60;98.10
28010;DHT22;15334;49.494;8.410;2023-06-22T14:11:07;33.30;99.00
28010;DHT22;15334;49.494;8.410;2023-06-22T14:13:35;32.90;99.90
28010;DHT22;15334;49.494;8.410;2023-06-22T14:16:05;32.60;99.00
28010;DHT22;15334;49.494;8.410;2023-06-22T14:18:33;32.40;99.80
28010;DHT22;15334;49.494;8.410;2023-06-22T14:21:01;32.00;99.30
28010;DHT22;15334;49.494;8.410;2023-06-22T14:23:29;31.80;99.90
28010;DHT22;15334;49.494;8.410;2023-06-22T14:25:57;31.60;99.90
28010;DHT22;15334;49.494;8.410;2023-06-22T14:28:25;31.40;99.90
28010;DHT22;15334;49.494;8.410;2023-06-22T14:30:53;31.30;99.90
28010;DHT22;15334;49.494;8.410;2023-06-22T14:33:22;31.10;99.90
28010;DHT22;15334;49.494;8.410;2023-06-22T14:35:50;30.90;99.90
28010;DHT22;15334;49.494;8.410;2023-06-22T14:38:18;30.90;99.90
28010;DHT22;15334;49.494;8.410;2023-06-22T14:40:46;30.90;99.90
28010;DHT22;15334;49.494;8.410;2023-06-22T14:43:19;30.90;99.90
28010;DHT22;15334;49.494;8.410;2023-06-22T14:45:47;30.90;99.90
28010;DHT22;15334;49.494;8.410;2023-06-22T14:48:17;31.00;99.90
28010;DHT22;15334;49.494;8.410;2023-06-22T14:50:46;31.00;99.90
28010;DHT22;15334;49.494;8.410;2023-06-22T14:53:14;30.90;99.90
28010;DHT22;15334;49.494;8.410;2023-06-22T14:55:42;30.80;99.90
28010;DHT22;15334;49.494;8.410;2023-06-22T14:58:10;30.70;99.90
28010;DHT22;15334;49.494;8.410;2023-06-22T15:00:38;30.70;99.90
28010;DHT22;15334;49.494;8.410;2023-06-22T15:03:07;30.70;99.90
28010;DHT22;15334;49.494;8.410;2023-06-22T15:05:38;30.60;99.90
28010;DHT22;15334;49.494;8.410;2023-06-22T15:08:07;30.70;99.90
28010;DHT22;15334;49.494;8.410;2023-06-22T15:10:37;30.60;99.90
28010;DHT22;15334;49.494;8.410;2023-06-22T15:13:05;30.60;99.90
28010;DHT22;15334;49.494;8.410;2023-06-22T15:15:34;30.70;99.90
28010;DHT22;15334;49.494;8.410;2023-06-22T15:18:02;30.70;99.90
28010;DHT22;15334;49.494;8.410;2023-06-22T15:20:30;30.80;99.90
28010;DHT22;15334;49.494;8.410;2023-06-22T15:22:58;30.80;99.90
28010;DHT22;15334;49.494;8.410;2023-06-22T15:25:27;30.80;99.90
28010;DHT22;15334;49.494;8.410;2023-06-22T15:27:55;30.80;99.90
28010;DHT22;15334;49.494;8.410;2023-06-22T15:30:23;30.80;99.90
28010;DHT22;15334;49.494;8.410;2023-06-22T15:32:51;30.70;99.90
28010;DHT22;15334;49.494;8.410;2023-06-22T15:35:19;30.50;99.90
28010;DHT22;15334;49.494;8.410;2023-06-22T15:37:48;30.50;99.90
28010;DHT22;15334;49.494;8.410;2023-06-22T15:40:17;30.40;99.90
28010;DHT22;15334;49.494;8.410;2023-06-22T15:42:49;30.30;99.90
28010;DHT22;15334;49.494;8.410;2023-06-22T15:45:19;30.20;99.90